Time;durP1;ratioP1;P1;durP2;ratioP2;P2;SDS_P1;SDS_P2;PMS_P1;PMS_P2;Temp;Humidity;BMP_temperature;BMP_pressure;BME280_temperature;BME280_humidity;BME280_pressure;Samples;Min_cycle;Max_cycle;Signal;HPM_P1;HPM_P2
2023/12/15 00:00:33;;;;;;;13.07;8.10;;;1.30;99.90;;;;;;5054013;28;20188;-85
2023/12/15 00:02:58;;;;;;;13.43;8.27;;;1.30;99.90;;;;;;5053481;28;20286;-85
2023/12/15 00:05:24;;;;;;;12.00;7.97;;;1.30;99.90;;;;;;5054683;28;20264;-85
2023/12/15 00:07:50;;;;;;;15.53;9.33;;;1.30;99.90;;;;;;5054707;28;20188;-85
2023/12/15 00:10:15;;;;;;;12.27;7.67;;;1.30;99.90;;;;;;5052558;28;20192;-86
2023/12/15 00:12:41;;;;;;;15.07;8.80;;;1.30;99.90;;;;;;5054356;28;20204;-86
2023/12/15 00:15:07;;;;;;;14.40;8.47;;;1.30;99.90;;;;;;5053023;28;20181;-86
2023/12/15 00:17:33;;;;;;;13.77;8.13;;;1.40;99.90;;;;;;5053045;28;20213;-85
2023/12/15 00:19:58;;;;;;;13.53;7.90;;;1.40;99.90;;;;;;5052422;28;20180;-85
2023/12/15 00:22:24;;;;;;;11.97;7.60;;;1.40;99.90;;;;;;5052979;28;20685;-85
2023/12/15 00:24:49;;;;;;;13.13;8.23;;;1.40;99.90;;;;;;5052929;28;20558;-85
2023/12/15 00:27:15;;;;;;;13.97;8.27;;;1.50;99.90;;;;;;5053075;28;20174;-85
2023/12/15 00:29:40;;;;;;;13.50;8.37;;;1.50;99.90;;;;;;5052153;28;20173;-85
2023/12/15 00:32:06;;;;;;;13.73;8.53;;;1.60;99.90;;;;;;5052573;28;20278;-85
2023/12/15 00:34:32;;;;;;;13.60;8.20;;;1.70;99.90;;;;;;5053050;28;20220;-85
2023/12/15 00:36:57;;;;;;;16.10;9.03;;;1.70;99.90;;;;;;5052608;28;20203;-85
2023/12/15 00:39:23;;;;;;;14.03;8.90;;;1.60;99.90;;;;;;5053742;28;20173;-85
2023/12/15 00:41:49;;;;;;;13.90;7.87;;;1.60;99.90;;;;;;5053403;28;20193;-85
2023/12/15 00:44:14;;;;;;;12.93;7.97;;;1.70;99.90;;;;;;5053724;28;20181;-85
2023/12/15 00:46:40;;;;;;;14.50;8.50;;;1.60;99.90;;;;;;5052137;28;20180;-85
2023/12/15 00:49:05;;;;;;;12.67;8.13;;;1.70;99.90;;;;;;5052480;28;20176;-85
2023/12/15 00:51:31;;;;;;;12.30;7.70;;;1.70;99.90;;;;;;5051948;28;20191;-85
2023/12/15 00:53:56;;;;;;;14.17;8.43;;;1.70;99.90;;;;;;5053756;28;20180;-85
2023/12/15 00:56:22;;;;;;;12.57;7.80;;;1.70;99.90;;;;;;5052268;28;20177;-85
2023/12/15 00:58:47;;;;;;;13.43;8.43;;;1.60;99.90;;;;;;5052239;28;20255;-85
2023/12/15 01:01:13;;;;;;;13.63;7.90;;;1.70;99.90;;;;;;5051935;28;20170;-85
2023/12/15 01:03:38;;;;;;;13.17;7.40;;;1.70;99.90;;;;;;5052360;28;20173;-85
2023/12/15 01:06:05;;;;;;;14.17;8.10;;;1.70;99.90;;;;;;5052283;28;20268;-85
2023/12/15 01:08:30;;;;;;;13.63;8.43;;;1.70;99.90;;;;;;5051973;28;20641;-85
2023/12/15 01:10:56;;;;;;;13.90;8.27;;;1.80;99.90;;;;;;5051573;28;20179;-85
2023/12/15 01:13:21;;;;;;;12.63;7.87;;;1.90;99.90;;;;;;5051920;28;20235;-85
2023/12/15 01:15:47;;;;;;;13.53;8.33;;;1.90;99.90;;;;;;5052214;28;20180;-85
2023/12/15 01:18:13;;;;;;;14.47;8.30;;;1.90;99.90;;;;;;5053356;28;20261;-85
2023/12/15 01:20:38;;;;;;;13.33;8.20;;;1.90;99.90;;;;;;5051797;28;20200;-85
2023/12/15 01:23:04;;;;;;;13.43;7.80;;;2.00;99.90;;;;;;5051809;28;20189;-85
2023/12/15 01:25:30;;;;;;;15.27;8.23;;;2.00;99.90;;;;;;5051905;28;20673;-85
2023/12/15 01:27:55;;;;;;;13.50;7.83;;;2.00;99.90;;;;;;5051670;28;20184;-85
2023/12/15 01:30:21;;;;;;;15.13;8.60;;;2.10;99.90;;;;;;5052628;28;20263;-84
2023/12/15 01:32:47;;;;;;;15.07;8.80;;;2.20;99.90;;;;;;5051656;28;20214;-85
2023/12/15 01:35:12;;;;;;;12.53;8.10;;;2.20;99.90;;;;;;5051817;28;20250;-85
2023/12/15 01:37:38;;;;;;;13.37;7.87;;;2.10;99.90;;;;;;5052786;28;20197;-85
2023/12/15 01:40:04;;;;;;;13.27;8.10;;;2.10;99.90;;;;;;5052289;28;20174;-85
2023/12/15 01:42:29;;;;;;;12.87;8.07;;;2.00;99.90;;;;;;5051847;28;20196;-85
2023/12/15 01:44:55;;;;;;;13.13;7.97;;;2.10;99.90;;;;;;5051387;28;20596;-85
2023/12/15 01:47:24;;;;;;;13.73;8.27;;;2.00;99.90;;;;;;5052759;28;20271;-85
2023/12/15 01:49:50;;;;;;;13.77;8.70;;;2.00;99.90;;;;;;5050809;28;20177;-85
2023/12/15 01:52:16;;;;;;;12.67;7.83;;;1.90;99.90;;;;;;5051292;28;20221;-85
2023/12/15 01:54:41;;;;;;;15.67;9.10;;;1.90;99.90;;;;;;5052583;28;20209;-85
2023/12/15 01:57:08;;;;;;;13.30;8.30;;;1.90;99.90;;;;;;5051235;28;20243;-85
2023/12/15 01:59:49;;;;;;;14.50;9.50;;;1.90;99.90;;;;;;5051423;28;20176;-85
2023/12/15 02:02:18;;;;;;;14.87;8.47;;;1.90;99.90;;;;;;5051257;28;20248;-85
2023/12/15 02:04:44;;;;;;;13.83;9.00;;;2.00;99.90;;;;;;5051196;28;20228;-86
2023/12/15 02:07:10;;;;;;;15.37;9.27;;;2.00;99.90;;;;;;5051208;28;20181;-85
2023/12/15 02:09:38;;;;;;;15.30;8.87;;;2.00;99.90;;;;;;5051658;28;20547;-85
2023/12/15 02:12:04;;;;;;;13.77;8.47;;;2.00;99.90;;;;;;5051011;28;20217;-85
2023/12/15 02:14:30;;;;;;;14.53;9.10;;;2.00;99.90;;;;;;5051005;28;20181;-86
2023/12/15 02:16:55;;;;;;;12.90;8.20;;;2.00;99.90;;;;;;5050977;28;20205;-85
2023/12/15 02:19:23;;;;;;;14.33;8.40;;;2.00;99.90;;;;;;5052245;28;20292;-85
2023/12/15 02:21:49;;;;;;;15.83;9.03;;;2.10;99.90;;;;;;5050556;28;20193;-85
2023/12/15 02:24:14;;;;;;;12.93;8.47;;;2.10;99.90;;;;;;5050834;28;20173;-85
2023/12/15 02:26:40;;;;;;;13.17;8.10;;;2.20;99.90;;;;;;5052318;28;20177;-85
2023/12/15 02:29:05;;;;;;;13.87;8.57;;;2.20;99.90;;;;;;5052421;28;20208;-85
2023/12/15 02:31:34;;;;;;;13.93;8.37;;;2.10;99.90;;;;;;5052031;28;20216;-82
2023/12/15 02:34:00;;;;;;;14.10;8.30;;;2.20;99.90;;;;;;5051222;28;20178;-85
2023/12/15 02:36:25;;;;;;;11.93;7.87;;;2.10;99.90;;;;;;5052158;28;20169;-85
2023/12/15 02:38:51;;;;;;;18.23;9.30;;;2.10;99.90;;;;;;5051802;28;20223;-85
2023/12/15 02:41:27;;;;;;;14.77;9.00;;;2.10;99.90;;;;;;5050528;28;20181;-85
2023/12/15 02:43:53;;;;;;;15.53;8.97;;;2.20;99.90;;;;;;5052028;28;20182;-85
2023/12/15 02:46:18;;;;;;;15.40;9.37;;;2.20;99.90;;;;;;5050640;28;20195;-85
2023/12/15 02:48:44;;;;;;;15.80;9.00;;;2.20;99.90;;;;;;5051940;28;20626;-85
2023/12/15 02:51:10;;;;;;;15.93;8.90;;;2.20;99.90;;;;;;5051777;28;20169;-86
2023/12/15 02:53:37;;;;;;;15.77;9.60;;;2.30;99.90;;;;;;5050864;28;20271;-85
2023/12/15 02:56:03;;;;;;;14.73;9.00;;;2.30;99.90;;;;;;5051953;28;20180;-85
2023/12/15 02:58:29;;;;;;;15.17;8.57;;;2.30;99.90;;;;;;5051619;28;20284;-84
2023/12/15 03:00:54;;;;;;;14.40;8.13;;;2.30;99.90;;;;;;5051329;28;20257;-85
2023/12/15 03:03:20;;;;;;;14.90;8.77;;;2.40;99.90;;;;;;5050554;28;20296;-85
2023/12/15 03:05:46;;;;;;;14.13;8.73;;;2.40;99.90;;;;;;5050366;28;20170;-85
2023/12/15 03:08:11;;;;;;;14.77;8.77;;;2.40;99.90;;;;;;5050575;28;20191;-86
2023/12/15 03:10:37;;;;;;;13.63;8.37;;;2.50;99.90;;;;;;5052924;28;20166;-85
2023/12/15 03:13:02;;;;;;;15.03;8.23;;;2.50;99.90;;;;;;5055546;28;20231;-85
2023/12/15 03:15:28;;;;;;;16.57;9.13;;;2.40;99.90;;;;;;5055650;28;20174;-85
2023/12/15 03:17:54;;;;;;;16.30;9.20;;;2.40;99.90;;;;;;5055525;28;20197;-85
2023/12/15 03:20:19;;;;;;;18.33;9.27;;;2.40;99.90;;;;;;5054755;28;20588;-85
2023/12/15 03:22:45;;;;;;;18.40;9.43;;;2.40;99.90;;;;;;5054042;28;20189;-85
2023/12/15 03:25:10;;;;;;;15.43;9.00;;;2.40;99.90;;;;;;5054097;28;20170;-85
2023/12/15 03:27:36;;;;;;;16.07;8.83;;;2.40;99.90;;;;;;5053588;28;20185;-85
2023/12/15 03:30:02;;;;;;;16.57;9.17;;;2.50;99.90;;;;;;5053433;28;20184;-85
2023/12/15 03:32:27;;;;;;;14.07;8.20;;;2.50;99.90;;;;;;5053821;28;20209;-85
2023/12/15 03:34:53;;;;;;;14.67;7.97;;;2.50;99.90;;;;;;5053859;28;20174;-85
2023/12/15 03:37:18;;;;;;;17.20;8.97;;;2.40;99.90;;;;;;5054915;28;20200;-85
2023/12/15 03:39:44;;;;;;;16.40;8.53;;;2.40;99.90;;;;;;5054639;28;20173;-85
2023/12/15 03:42:11;;;;;;;14.10;8.20;;;2.40;99.90;;;;;;5053441;28;20211;-85
2023/12/15 03:44:39;;;;;;;14.50;8.50;;;2.40;99.90;;;;;;5053619;28;20176;-85
2023/12/15 03:47:07;;;;;;;14.47;7.93;;;2.20;99.90;;;;;;5053685;28;20264;-85
2023/12/15 03:49:34;;;;;;;13.40;7.60;;;2.20;99.90;;;;;;5054079;28;20181;-85
2023/12/15 03:51:59;;;;;;;16.23;8.83;;;2.10;99.90;;;;;;5053438;28;20194;-85
2023/12/15 03:54:25;;;;;;;15.70;9.00;;;2.00;99.90;;;;;;5053441;28;20176;-85
2023/12/15 03:56:58;;;;;;;15.50;9.30;;;1.90;99.90;;;;;;5053440;28;20257;-85
2023/12/15 03:59:24;;;;;;;15.27;8.30;;;1.90;99.90;;;;;;5053128;28;20173;-85
2023/12/15 04:01:50;;;;;;;17.27;8.27;;;1.80;99.90;;;;;;5053360;28;20638;-85
2023/12/15 04:04:16;;;;;;;13.00;7.63;;;1.80;99.90;;;;;;5052633;28;20271;-85
2023/12/15 04:06:42;;;;;;;14.13;8.57;;;1.70;99.90;;;;;;5054683;28;20264;-85
2023/12/15 04:09:09;;;;;;;14.07;8.03;;;1.60;99.90;;;;;;5053157;28;20216;-85
2023/12/15 04:11:36;;;;;;;13.10;7.93;;;1.60;99.90;;;;;;5052768;28;20220;-86
2023/12/15 04:14:02;;;;;;;13.20;7.50;;;1.60;99.90;;;;;;5054345;28;20257;-85
2023/12/15 04:16:27;;;;;;;13.33;7.63;;;1.60;99.90;;;;;;5054034;28;20249;-85
2023/12/15 04:18:53;;;;;;;14.63;7.97;;;1.60;99.90;;;;;;5052659;28;20577;-84
2023/12/15 04:21:18;;;;;;;14.87;7.97;;;1.60;99.90;;;;;;5052567;28;20173;-85
2023/12/15 04:23:44;;;;;;;15.70;8.53;;;1.60;99.90;;;;;;5053871;28;20231;-86
2023/12/15 04:26:09;;;;;;;14.33;8.43;;;1.60;99.90;;;;;;5052756;28;20174;-85
2023/12/15 04:28:35;;;;;;;14.23;8.07;;;1.70;99.90;;;;;;5052921;28;20187;-85
2023/12/15 04:31:01;;;;;;;13.53;7.50;;;1.70;99.90;;;;;;5052278;28;20181;-85
2023/12/15 04:33:26;;;;;;;15.27;8.03;;;1.70;99.90;;;;;;5053831;28;20269;-86
2023/12/15 04:35:52;;;;;;;12.53;7.53;;;1.70;99.90;;;;;;5053007;28;20188;-85
2023/12/15 04:38:17;;;;;;;17.80;8.13;;;1.70;99.90;;;;;;5052531;28;20217;-85
2023/12/15 04:40:43;;;;;;;14.20;7.50;;;1.80;99.90;;;;;;5052225;28;20177;-85
2023/12/15 04:43:09;;;;;;;13.20;8.27;;;1.80;99.90;;;;;;5053832;28;20188;-85
2023/12/15 04:45:34;;;;;;;15.07;8.37;;;1.80;99.90;;;;;;5052552;28;20173;-85
2023/12/15 04:48:00;;;;;;;15.50;8.53;;;1.90;99.90;;;;;;5053640;28;20173;-85
2023/12/15 04:50:26;;;;;;;15.37;7.90;;;1.90;99.90;;;;;;5051973;28;20230;-85
2023/12/15 04:52:51;;;;;;;15.00;8.53;;;2.00;99.90;;;;;;5052734;28;20197;-85
2023/12/15 04:55:17;;;;;;;16.73;9.03;;;2.00;99.90;;;;;;5053798;28;20201;-85
2023/12/15 04:57:42;;;;;;;13.43;7.70;;;2.00;99.90;;;;;;5052512;28;20242;-85
2023/12/15 05:00:08;;;;;;;15.10;7.90;;;2.00;99.90;;;;;;5052889;28;20170;-85
2023/12/15 05:02:34;;;;;;;14.07;7.80;;;2.10;99.90;;;;;;5052032;28;20221;-85
2023/12/15 05:04:59;;;;;;;13.43;7.33;;;2.10;99.90;;;;;;5052550;28;20189;-84
2023/12/15 05:07:25;;;;;;;16.77;8.23;;;2.10;99.90;;;;;;5053663;28;20174;-85
2023/12/15 05:09:50;;;;;;;14.97;8.10;;;2.10;99.90;;;;;;5051555;28;20232;-86
2023/12/15 05:12:16;;;;;;;17.33;6.43;;;2.10;99.90;;;;;;5052087;28;20193;-85
2023/12/15 05:14:42;;;;;;;16.03;8.27;;;2.20;99.90;;;;;;5052017;28;20246;-86
2023/12/15 05:17:08;;;;;;;13.60;7.47;;;2.40;99.90;;;;;;5051656;28;20567;-85
2023/12/15 05:19:33;;;;;;;13.60;7.83;;;2.40;99.90;;;;;;5052539;28;20193;-85
2023/12/15 05:21:59;;;;;;;12.60;7.63;;;2.40;99.90;;;;;;5051734;28;20197;-85
2023/12/15 05:24:25;;;;;;;14.47;8.30;;;2.30;99.90;;;;;;5053519;28;20601;-85
2023/12/15 05:26:50;;;;;;;14.03;8.07;;;2.80;99.90;;;;;;5053717;28;20192;-84
2023/12/15 05:29:16;;;;;;;12.70;7.47;;;3.60;99.90;;;;;;5052102;28;20261;-85
2023/12/15 05:31:44;;;;;;;10.67;6.90;;;4.10;99.90;;;;;;5052782;28;20216;-84
2023/12/15 05:34:10;;;;;;;11.93;6.73;;;4.40;99.90;;;;;;5050944;28;20181;-85
2023/12/15 05:36:35;;;;;;;12.93;7.97;;;4.60;99.90;;;;;;5052332;28;20177;-85
2023/12/15 05:39:01;;;;;;;11.93;7.60;;;4.70;99.90;;;;;;5051807;28;20216;-86
2023/12/15 05:41:27;;;;;;;13.13;7.53;;;4.20;99.90;;;;;;5051092;28;20191;-86
2023/12/15 05:43:53;;;;;;;12.87;7.87;;;3.90;99.90;;;;;;5051497;28;20650;-85
2023/12/15 05:46:19;;;;;;;12.60;7.53;;;3.50;99.90;;;;;;5052695;28;20184;-86
2023/12/15 05:48:45;;;;;;;13.20;7.53;;;3.30;99.90;;;;;;5051649;28;20179;-86
2023/12/15 05:51:10;;;;;;;12.40;7.47;;;3.00;99.90;;;;;;5050914;28;20177;-86
2023/12/15 05:53:36;;;;;;;14.83;8.43;;;2.80;99.90;;;;;;5051470;28;20201;-86
2023/12/15 05:56:02;;;;;;;15.13;8.60;;;2.80;99.90;;;;;;5052768;28;20184;-86
2023/12/15 05:58:27;;;;;;;13.97;8.00;;;2.70;99.90;;;;;;5052386;28;20678;-86
2023/12/15 06:00:53;;;;;;;14.43;8.00;;;2.60;99.90;;;;;;5052136;28;20181;-85
2023/12/15 06:03:18;;;;;;;12.83;7.90;;;2.60;99.90;;;;;;5052330;28;20201;-85
2023/12/15 06:05:44;;;;;;;13.43;7.80;;;2.60;99.90;;;;;;5051423;28;20276;-84
2023/12/15 06:08:11;;;;;;;13.83;8.57;;;2.60;99.90;;;;;;5051175;28;20178;-84
2023/12/15 06:10:36;;;;;;;16.70;9.17;;;2.60;99.90;;;;;;5051915;28;20181;-86
2023/12/15 06:13:02;;;;;;;14.93;8.17;;;2.60;99.90;;;;;;5052290;28;20725;-85
2023/12/15 06:15:28;;;;;;;14.57;8.30;;;2.60;99.90;;;;;;5050927;28;20192;-84
2023/12/15 06:17:53;;;;;;;14.47;7.93;;;2.60;99.90;;;;;;5050944;28;20227;-85
2023/12/15 06:20:19;;;;;;;13.73;7.53;;;2.70;99.90;;;;;;5050374;28;20177;-84
2023/12/15 06:22:44;;;;;;;15.67;8.27;;;2.70;99.90;;;;;;5050728;28;20254;-86
2023/12/15 06:25:10;;;;;;;14.90;7.90;;;2.60;99.90;;;;;;5051054;28;20177;-85
2023/12/15 06:27:36;;;;;;;15.60;8.53;;;2.60;99.90;;;;;;5050820;28;20181;-85
2023/12/15 06:30:02;;;;;;;15.63;8.53;;;2.60;99.90;;;;;;5050268;28;20174;-85
2023/12/15 06:32:28;;;;;;;16.57;8.33;;;2.70;99.90;;;;;;5051010;28;20219;-84
2023/12/15 06:34:53;;;;;;;17.80;9.27;;;2.70;99.90;;;;;;5051244;28;20257;-85
2023/12/15 06:37:19;;;;;;;16.03;8.70;;;2.70;99.90;;;;;;5050677;28;20193;-84
2023/12/15 06:39:45;;;;;;;17.07;9.00;;;2.80;99.90;;;;;;5050243;28;20177;-85
2023/12/15 06:42:11;;;;;;;16.43;9.00;;;2.80;99.90;;;;;;5052045;28;20193;-85
2023/12/15 06:44:37;;;;;;;17.50;9.13;;;2.80;99.90;;;;;;5050623;28;20235;-84
2023/12/15 06:47:03;;;;;;;17.17;9.43;;;2.80;99.90;;;;;;5055010;28;20176;-85
2023/12/15 06:49:32;;;;;;;17.47;9.97;;;2.80;99.90;;;;;;5054097;28;20166;-85
2023/12/15 06:52:01;;;;;;;17.47;9.13;;;2.80;99.90;;;;;;5054443;28;20189;-85
2023/12/15 06:54:26;;;;;;;16.80;8.87;;;2.80;99.90;;;;;;5056073;28;20748;-84
2023/12/15 06:56:52;;;;;;;18.20;9.00;;;2.80;99.90;;;;;;5056000;28;20201;-85
2023/12/15 06:59:18;;;;;;;18.30;9.83;;;2.80;99.90;;;;;;5055946;28;20536;-83
2023/12/15 07:01:43;;;;;;;20.27;9.67;;;2.80;99.90;;;;;;5055581;28;20197;-84
2023/12/15 07:04:09;;;;;;;19.97;10.23;;;2.80;99.90;;;;;;5054993;28;20169;-84
2023/12/15 07:06:35;;;;;;;16.80;9.67;;;2.80;99.90;;;;;;5054591;28;20295;-85
2023/12/15 07:09:00;;;;;;;18.03;9.47;;;2.80;99.90;;;;;;5055502;28;20541;-86
2023/12/15 07:11:26;;;;;;;18.77;9.57;;;2.90;99.90;;;;;;5053982;28;20208;-83
2023/12/15 07:13:51;;;;;;;17.30;9.63;;;2.90;99.90;;;;;;5054715;28;20178;-83
2023/12/15 07:16:17;;;;;;;18.67;10.37;;;2.80;99.90;;;;;;5055137;28;20196;-83
2023/12/15 07:18:43;;;;;;;18.10;9.23;;;2.80;99.90;;;;;;5056295;28;20208;-84
2023/12/15 07:21:09;;;;;;;18.53;9.83;;;2.80;99.90;;;;;;5055554;28;20707;-83
2023/12/15 07:23:35;;;;;;;21.13;10.93;;;2.80;99.90;;;;;;5054587;28;20166;-85
2023/12/15 07:26:01;;;;;;;15.93;9.00;;;2.80;99.90;;;;;;5055667;28;20733;-85
2023/12/15 07:28:26;;;;;;;17.50;9.60;;;2.80;99.90;;;;;;5055618;28;20183;-85
2023/12/15 07:30:52;;;;;;;17.37;9.87;;;2.80;99.90;;;;;;5053140;28;20174;-86
2023/12/15 07:33:17;;;;;;;19.50;9.70;;;2.80;99.90;;;;;;5054743;28;20229;-85
2023/12/15 07:35:43;;;;;;;16.70;9.50;;;2.80;99.90;;;;;;5054733;28;20230;-85
2023/12/15 07:38:09;;;;;;;19.53;10.53;;;2.80;99.90;;;;;;5054091;28;20686;-86
2023/12/15 07:40:35;;;;;;;19.73;10.20;;;2.90;99.90;;;;;;5053767;28;20595;-85
2023/12/15 07:43:01;;;;;;;17.23;9.73;;;2.90;99.90;;;;;;5055461;28;20328;-85
2023/12/15 07:45:26;;;;;;;18.30;10.53;;;2.90;99.90;;;;;;5055551;28;20166;-82
2023/12/15 07:47:53;;;;;;;19.47;10.47;;;2.90;99.90;;;;;;5054308;28;20173;-84
2023/12/15 07:50:19;;;;;;;19.07;9.67;;;3.00;99.90;;;;;;5053978;28;20181;-85
2023/12/15 07:52:45;;;;;;;19.90;10.30;;;3.00;99.90;;;;;;5055827;28;20197;-84
2023/12/15 07:55:11;;;;;;;19.83;10.87;;;3.00;99.90;;;;;;5055465;28;20273;-83
2023/12/15 07:57:36;;;;;;;20.43;9.83;;;3.10;99.90;;;;;;5055054;28;20211;-84
2023/12/15 08:00:05;;;;;;;17.57;9.93;;;3.00;99.90;;;;;;5056168;28;20575;-84
2023/12/15 08:02:31;;;;;;;18.57;9.90;;;3.10;99.90;;;;;;5054183;28;20204;-84
2023/12/15 08:04:56;;;;;;;16.60;9.57;;;3.10;99.90;;;;;;5054339;28;20178;-84
2023/12/15 08:07:22;;;;;;;15.93;8.70;;;3.10;99.90;;;;;;5055586;28;20181;-84
2023/12/15 08:09:48;;;;;;;20.33;9.80;;;3.10;99.90;;;;;;5053083;28;20736;-85
2023/12/15 08:12:13;;;;;;;15.73;8.73;;;3.20;99.90;;;;;;5055948;28;20197;-84
2023/12/15 08:14:39;;;;;;;19.13;10.20;;;3.20;99.90;;;;;;5052910;28;20204;-85
2023/12/15 08:17:04;;;;;;;17.00;9.23;;;3.20;99.90;;;;;;5051940;28;20217;-84
2023/12/15 08:19:31;;;;;;;16.27;9.10;;;3.20;99.90;;;;;;5054219;28;20185;-84
2023/12/15 08:21:59;;;;;;;18.07;9.67;;;3.20;99.90;;;;;;5055500;28;20194;-84
2023/12/15 08:24:25;;;;;;;19.03;10.70;;;3.30;99.90;;;;;;5055374;28;20181;-84
2023/12/15 08:26:52;;;;;;;18.73;10.10;;;3.30;99.90;;;;;;5054572;28;20259;-84
2023/12/15 08:29:18;;;;;;;18.53;9.80;;;3.20;99.90;;;;;;5054068;28;20612;-83
2023/12/15 08:31:44;;;;;;;19.27;9.77;;;3.20;99.90;;;;;;5054632;28;20205;-84
2023/12/15 08:34:09;;;;;;;19.10;10.10;;;3.20;99.90;;;;;;5054288;28;20180;-83
2023/12/15 08:36:35;;;;;;;19.77;10.30;;;3.20;99.90;;;;;;5054909;28;20166;-84
2023/12/15 08:39:00;;;;;;;18.97;9.93;;;3.20;99.90;;;;;;5056142;28;20198;-84
2023/12/15 08:41:26;;;;;;;21.00;10.47;;;3.20;99.90;;;;;;5054090;28;20192;-82
2023/12/15 08:43:51;;;;;;;19.03;9.97;;;3.30;99.90;;;;;;5056181;28;20162;-82
2023/12/15 08:46:17;;;;;;;20.43;10.53;;;3.30;99.90;;;;;;5054452;28;20215;-81
2023/12/15 08:48:43;;;;;;;19.63;10.33;;;3.30;99.90;;;;;;5055470;28;20178;-82
2023/12/15 08:51:08;;;;;;;20.43;10.23;;;3.30;99.90;;;;;;5053915;28;20316;-81
2023/12/15 08:53:34;;;;;;;19.07;10.57;;;3.30;99.90;;;;;;5054102;28;20191;-82
2023/12/15 08:55:59;;;;;;;20.57;10.67;;;3.30;99.90;;;;;;5052897;28;20692;-82
2023/12/15 08:58:26;;;;;;;950.23;520.47;;;3.30;99.90;;;;;;5054229;28;20229;-79
2023/12/15 09:00:51;;;;;;;349.07;192.97;;;5.60;99.90;;;;;;5054200;28;20190;-81
2023/12/15 09:03:17;;;;;;;674.47;395.80;;;5.70;99.90;;;;;;5053378;28;20202;-80
2023/12/15 09:05:42;;;;;;;611.43;394.07;;;6.40;99.90;;;;;;5052945;28;20256;-80
2023/12/15 09:08:08;;;;;;;34.80;18.30;;;6.40;99.90;;;;;;5052189;28;20278;-81
2023/12/15 09:10:35;;;;;;;496.13;271.87;;;5.80;99.90;;;;;;5052508;28;20180;-81
2023/12/15 09:13:02;;;;;;;212.50;103.30;;;6.00;99.90;;;;;;5053094;28;20193;-81
2023/12/15 09:15:29;;;;;;;81.60;39.30;;;6.70;99.90;;;;;;5052787;28;20274;-84
2023/12/15 09:17:54;;;;;;;16.97;9.33;;;5.90;99.90;;;;;;5052681;28;20189;-83
2023/12/15 09:20:20;;;;;;;15.50;9.60;;;5.10;99.90;;;;;;5053663;28;20172;-84
2023/12/15 09:22:46;;;;;;;16.97;9.57;;;4.60;99.90;;;;;;5053120;28;20201;-82
2023/12/15 09:25:12;;;;;;;18.27;9.57;;;4.20;99.90;;;;;;5052438;28;20648;-83
2023/12/15 09:27:38;;;;;;;24.90;14.70;;;4.00;99.90;;;;;;5052633;28;20182;-79
2023/12/15 09:30:04;;;;;;;23.83;12.43;;;4.00;99.90;;;;;;5049701;28;20552;-82
2023/12/15 09:32:29;;;;;;;26.57;13.30;;;4.20;99.90;;;;;;5053338;28;20207;-82
2023/12/15 09:34:55;;;;;;;23.40;12.47;;;5.00;99.90;;;;;;5052044;28;20202;-82
2023/12/15 09:37:20;;;;;;;17.10;9.83;;;4.90;99.90;;;;;;5051731;28;20204;-82
2023/12/15 09:39:46;;;;;;;17.07;8.83;;;5.00;99.90;;;;;;5051941;28;20181;-82
2023/12/15 09:42:11;;;;;;;21.83;10.87;;;4.60;99.90;;;;;;5053475;28;20198;-81
2023/12/15 09:44:37;;;;;;;15.60;8.90;;;4.80;99.90;;;;;;5052872;28;20221;-87
2023/12/15 09:47:03;;;;;;;19.20;9.83;;;4.60;99.90;;;;;;5052626;28;20271;-88
2023/12/15 09:49:32;;;;;;;17.27;9.90;;;4.30;99.90;;;;;;5051056;28;20172;-87
2023/12/15 09:52:02;;;;;;;18.57;9.97;;;4.10;99.90;;;;;;5052421;28;20217;-87
2023/12/15 09:54:28;;;;;;;19.97;10.40;;;4.00;99.90;;;;;;5046721;28;20186;-87
2023/12/15 09:56:54;;;;;;;17.90;9.17;;;3.90;99.90;;;;;;5043438;28;20179;-86
2023/12/15 09:59:21;;;;;;;22.47;10.50;;;3.80;99.90;;;;;;5050036;28;20170;-87
2023/12/15 10:01:47;;;;;;;17.63;9.80;;;3.80;99.90;;;;;;5051579;28;20697;-87
2023/12/15 10:04:13;;;;;;;20.73;10.33;;;3.80;99.90;;;;;;5051321;28;20170;-86
2023/12/15 10:06:38;;;;;;;18.37;10.53;;;3.80;99.90;;;;;;5051653;28;20251;-87
2023/12/15 10:09:17;;;;;;;20.60;11.20;;;3.90;99.90;;;;;;5050858;28;20239;-87
2023/12/15 10:11:46;;;;;;;19.77;10.07;;;3.80;99.90;;;;;;5051463;28;20202;-86
2023/12/15 10:14:14;;;;;;;20.97;10.43;;;3.80;99.90;;;;;;5050416;28;20184;-87
2023/12/15 10:16:40;;;;;;;20.93;11.20;;;3.80;99.90;;;;;;5050440;28;20200;-86
2023/12/15 10:19:07;;;;;;;17.40;9.43;;;3.90;99.90;;;;;;5050313;28;20229;-87
2023/12/15 10:21:34;;;;;;;18.93;10.07;;;3.90;99.90;;;;;;5043028;28;20186;-85
2023/12/15 10:24:20;;;;;;;21.60;11.57;;;3.90;99.90;;;;;;5045373;28;20178;-83
2023/12/15 10:26:47;;;;;;;19.47;10.67;;;3.90;99.90;;;;;;5048791;28;20181;-82
2023/12/15 10:29:13;;;;;;;22.17;11.53;;;3.90;99.90;;;;;;5052119;28;20546;-82
2023/12/15 10:31:38;;;;;;;19.93;10.63;;;3.90;99.90;;;;;;5052706;28;20205;-82
2023/12/15 10:34:05;;;;;;;20.37;10.83;;;3.90;99.90;;;;;;5053044;28;20227;-82
2023/12/15 10:36:33;;;;;;;17.77;9.80;;;4.00;99.90;;;;;;5051679;28;20173;-82
2023/12/15 10:39:03;;;;;;;20.17;10.87;;;4.00;99.90;;;;;;5051286;28;20205;-80
2023/12/15 10:41:31;;;;;;;21.43;11.20;;;4.00;99.90;;;;;;5052760;28;20662;-82
2023/12/15 10:44:04;;;;;;;22.37;11.90;;;4.00;99.90;;;;;;5053183;28;20171;-82
2023/12/15 10:46:31;;;;;;;22.97;11.67;;;4.10;99.90;;;;;;5051554;28;20170;-83
2023/12/15 10:48:59;;;;;;;19.33;10.80;;;4.10;99.90;;;;;;5051352;28;20178;-83
2023/12/15 10:51:25;;;;;;;21.23;11.27;;;4.10;99.90;;;;;;5051499;28;20185;-82
2023/12/15 10:53:56;;;;;;;22.13;11.80;;;4.10;99.90;;;;;;5051268;28;20216;-83
2023/12/15 10:56:26;;;;;;;21.40;11.50;;;4.10;99.90;;;;;;5052995;28;20170;-83
2023/12/15 10:58:52;;;;;;;21.83;12.33;;;4.10;99.90;;;;;;5052427;28;20736;-83
2023/12/15 11:01:19;;;;;;;24.07;11.60;;;4.10;99.90;;;;;;5052068;28;20169;-83
2023/12/15 11:03:45;;;;;;;22.43;11.60;;;4.20;99.90;;;;;;5052673;28;20178;-83
2023/12/15 11:06:10;;;;;;;22.43;11.63;;;4.10;99.90;;;;;;5049359;28;20272;-81
2023/12/15 11:08:37;;;;;;;21.30;11.47;;;4.20;99.90;;;;;;5051607;28;20208;-82
2023/12/15 11:11:07;;;;;;;22.27;11.40;;;4.20;99.90;;;;;;5050204;28;20204;-84
2023/12/15 11:13:52;;;;;;;23.87;11.97;;;4.20;99.90;;;;;;5050618;28;20651;-83
2023/12/15 11:16:18;;;;;;;23.20;11.77;;;4.20;99.90;;;;;;5051187;28;20173;-83
2023/12/15 11:18:44;;;;;;;24.07;11.47;;;4.20;99.90;;;;;;5051986;28;20201;-87
2023/12/15 11:21:13;;;;;;;20.30;10.97;;;4.30;99.90;;;;;;5049203;28;20224;-87
2023/12/15 11:23:55;;;;;;;22.43;11.97;;;4.30;99.90;;;;;;5049723;28;20171;-88
2023/12/15 11:26:27;;;;;;;24.27;12.23;;;4.40;99.90;;;;;;5051238;28;20187;-85
2023/12/15 11:29:00;;;;;;;22.60;11.00;;;4.40;99.90;;;;;;5050564;28;20177;-84
2023/12/15 11:31:28;;;;;;;18.07;8.83;;;4.40;99.90;;;;;;5049879;28;20201;-83
2023/12/15 11:33:55;;;;;;;21.50;11.83;;;4.60;99.90;;;;;;5055059;28;20185;-83
2023/12/15 11:36:20;;;;;;;21.10;10.60;;;4.80;99.90;;;;;;5054265;28;20273;-83
2023/12/15 11:38:48;;;;;;;20.67;10.67;;;4.80;99.90;;;;;;5054125;28;20294;-84
2023/12/15 11:41:19;;;;;;;20.63;11.03;;;4.70;99.90;;;;;;5053650;28;20196;-85
2023/12/15 11:43:45;;;;;;;19.43;10.10;;;4.60;99.90;;;;;;5054250;28;20179;-84
2023/12/15 11:46:11;;;;;;;15.90;8.77;;;4.60;99.90;;;;;;5053832;28;20179;-83
2023/12/15 11:48:37;;;;;;;21.40;11.80;;;4.80;99.90;;;;;;5053782;28;20181;-84
2023/12/15 11:51:03;;;;;;;16.67;9.70;;;6.40;99.90;;;;;;5053589;28;20557;-83
2023/12/15 11:53:30;;;;;;;18.20;9.60;;;5.70;99.90;;;;;;5054080;28;20192;-84
2023/12/15 11:55:57;;;;;;;16.93;9.67;;;5.60;99.90;;;;;;5053621;28;20645;-86
2023/12/15 11:58:23;;;;;;;18.30;10.73;;;5.50;99.90;;;;;;5053306;28;20659;-86
2023/12/15 12:00:49;;;;;;;17.37;9.67;;;5.20;99.90;;;;;;5052853;28;20179;-86
2023/12/15 12:03:15;;;;;;;17.90;9.83;;;5.00;99.90;;;;;;5053366;28;20208;-86
2023/12/15 12:05:53;;;;;;;18.43;10.33;;;4.90;99.90;;;;;;5053262;28;20174;-87
2023/12/15 12:08:21;;;;;;;16.80;9.50;;;4.80;99.90;;;;;;5053379;28;20183;-86
2023/12/15 12:10:50;;;;;;;19.07;10.63;;;4.70;99.90;;;;;;5052827;28;20171;-86
2023/12/15 12:13:16;;;;;;;18.77;10.73;;;4.70;99.90;;;;;;5054400;28;20262;-86
2023/12/15 12:15:49;;;;;;;18.67;10.07;;;4.70;99.90;;;;;;5054274;28;20182;-86
2023/12/15 12:18:14;;;;;;;20.20;10.40;;;4.70;99.90;;;;;;5054419;28;20215;-88
2023/12/15 12:20:43;;;;;;;36.60;18.40;;;4.80;99.90;;;;;;5052608;28;20180;-86
2023/12/15 12:23:09;;;;;;;17.83;11.63;;;4.80;99.90;;;;;;5053007;28;20191;-86
2023/12/15 12:25:34;;;;;;;28.10;15.47;;;4.80;99.90;;;;;;5052937;28;20175;-86
2023/12/15 12:28:00;;;;;;;19.33;11.80;;;4.80;99.90;;;;;;5052735;28;20298;-86
2023/12/15 12:30:28;;;;;;;17.43;10.77;;;4.80;99.90;;;;;;5052191;28;20219;-86
2023/12/15 12:32:53;;;;;;;19.57;11.93;;;4.80;99.90;;;;;;5052698;28;20213;-86
2023/12/15 12:35:19;;;;;;;15.77;9.10;;;4.80;99.90;;;;;;5052969;28;20170;-87
2023/12/15 12:37:44;;;;;;;16.17;9.60;;;4.80;99.90;;;;;;5052738;28;20316;-86